sensor_id;sensor_type;location;lat;lon;timestamp;P1;durP1;ratioP1;P2;durP2;ratioP2
52210;SDS011;38179;52.756;6.906;2023-03-12T05:31:00;15.50;;;10.48;;
52210;SDS011;38179;52.756;6.906;2023-03-12T05:33:32;15.05;;;9.60;;
52210;SDS011;38179;52.756;6.906;2023-03-12T05:35:58;13.20;;;9.35;;
52210;SDS011;38179;52.756;6.906;2023-03-12T05:38:24;15.55;;;10.20;;
52210;SDS011;38179;52.756;6.906;2023-03-12T05:40:54;14.70;;;10.07;;
52210;SDS011;38179;52.756;6.906;2023-03-12T05:43:20;13.77;;;9.82;;
52210;SDS011;38179;52.756;6.906;2023-03-12T05:45:47;12.38;;;9.75;;
52210;SDS011;38179;52.756;6.906;2023-03-12T05:48:13;13.82;;;9.93;;
52210;SDS011;38179;52.756;6.906;2023-03-12T05:50:40;18.33;;;9.80;;
52210;SDS011;38179;52.756;6.906;2023-03-12T05:53:06;15.68;;;10.18;;
52210;SDS011;38179;52.756;6.906;2023-03-12T05:55:35;14.32;;;10.25;;
52210;SDS011;38179;52.756;6.906;2023-03-12T05:58:03;12.50;;;10.13;;
52210;SDS011;38179;52.756;6.906;2023-03-12T06:00:29;16.88;;;9.95;;
52210;SDS011;38179;52.756;6.906;2023-03-12T06:02:56;14.80;;;10.25;;
52210;SDS011;38179;52.756;6.906;2023-03-12T06:05:22;14.82;;;10.20;;
52210;SDS011;38179;52.756;6.906;2023-03-12T06:07:47;16.33;;;11.02;;
52210;SDS011;38179;52.756;6.906;2023-03-12T06:10:14;24.42;;;10.60;;
52210;SDS011;38179;52.756;6.906;2023-03-12T06:12:40;14.52;;;10.98;;
52210;SDS011;38179;52.756;6.906;2023-03-12T06:15:06;16.25;;;10.73;;
52210;SDS011;38179;52.756;6.906;2023-03-12T06:17:32;16.70;;;11.00;;
52210;SDS011;38179;52.756;6.906;2023-03-12T06:19:58;25.05;;;11.32;;
52210;SDS011;38179;52.756;6.906;2023-03-12T06:22:24;15.05;;;11.13;;
52210;SDS011;38179;52.756;6.906;2023-03-12T06:24:50;13.00;;;10.00;;
52210;SDS011;38179;52.756;6.906;2023-03-12T06:27:16;17.88;;;11.70;;
52210;SDS011;38179;52.756;6.906;2023-03-12T06:29:42;14.75;;;11.23;;
52210;SDS011;38179;52.756;6.906;2023-03-12T06:32:10;13.98;;;10.25;;
52210;SDS011;38179;52.756;6.906;2023-03-12T06:34:36;16.35;;;11.23;;
52210;SDS011;38179;52.756;6.906;2023-03-12T06:37:02;16.83;;;11.45;;
52210;SDS011;38179;52.756;6.906;2023-03-12T06:39:28;19.20;;;11.25;;
52210;SDS011;38179;52.756;6.906;2023-03-12T06:41:54;13.98;;;10.50;;
52210;SDS011;38179;52.756;6.906;2023-03-12T06:44:20;15.68;;;10.77;;
52210;SDS011;38179;52.756;6.906;2023-03-12T06:46:46;15.77;;;11.43;;
52210;SDS011;38179;52.756;6.906;2023-03-12T06:49:12;14.90;;;10.93;;
52210;SDS011;38179;52.756;6.906;2023-03-12T06:51:38;14.15;;;10.73;;
52210;SDS011;38179;52.756;6.906;2023-03-12T06:54:06;16.70;;;11.23;;
52210;SDS011;38179;52.756;6.906;2023-03-12T06:56:31;15.43;;;10.88;;
52210;SDS011;38179;52.756;6.906;2023-03-12T06:58:57;13.95;;;10.68;;
52210;SDS011;38179;52.756;6.906;2023-03-12T07:01:24;12.88;;;9.90;;
52210;SDS011;38179;52.756;6.906;2023-03-12T07:03:49;17.25;;;10.73;;
52210;SDS011;38179;52.756;6.906;2023-03-12T07:06:16;15.48;;;10.15;;
52210;SDS011;38179;52.756;6.906;2023-03-12T07:08:44;15.57;;;10.68;;
52210;SDS011;38179;52.756;6.906;2023-03-12T07:11:11;14.77;;;9.15;;
52210;SDS011;38179;52.756;6.906;2023-03-12T07:13:38;18.63;;;10.55;;
52210;SDS011;38179;52.756;6.906;2023-03-12T07:16:05;16.58;;;9.95;;
52210;SDS011;38179;52.756;6.906;2023-03-12T07:18:32;13.77;;;10.07;;
52210;SDS011;38179;52.756;6.906;2023-03-12T07:20:58;16.10;;;10.18;;
52210;SDS011;38179;52.756;6.906;2023-03-12T07:23:24;14.70;;;10.98;;
52210;SDS011;38179;52.756;6.906;2023-03-12T07:25:50;14.48;;;10.40;;
52210;SDS011;38179;52.756;6.906;2023-03-12T07:28:17;17.10;;;11.05;;
52210;SDS011;38179;52.756;6.906;2023-03-12T07:30:43;13.90;;;10.88;;
52210;SDS011;38179;52.756;6.906;2023-03-12T07:33:14;12.43;;;9.65;;
52210;SDS011;38179;52.756;6.906;2023-03-12T07:35:45;12.82;;;9.75;;
52210;SDS011;38179;52.756;6.906;2023-03-12T07:38:12;16.10;;;10.55;;
52210;SDS011;38179;52.756;6.906;2023-03-12T07:40:38;13.13;;;10.35;;
52210;SDS011;38179;52.756;6.906;2023-03-12T07:43:04;14.98;;;10.43;;
52210;SDS011;38179;52.756;6.906;2023-03-12T07:45:36;13.25;;;10.52;;
52210;SDS011;38179;52.756;6.906;2023-03-12T07:48:03;13.27;;;10.55;;
52210;SDS011;38179;52.756;6.906;2023-03-12T07:50:29;13.55;;;9.85;;
52210;SDS011;38179;52.756;6.906;2023-03-12T07:52:55;15.68;;;10.60;;
52210;SDS011;38179;52.756;6.906;2023-03-12T07:55:21;15.73;;;10.65;;
52210;SDS011;38179;52.756;6.906;2023-03-12T07:57:47;16.42;;;11.18;;
52210;SDS011;38179;52.756;6.906;2023-03-12T08:00:13;14.60;;;11.60;;
52210;SDS011;38179;52.756;6.906;2023-03-12T08:02:39;19.10;;;11.65;;
52210;SDS011;38179;52.756;6.906;2023-03-12T08:05:08;15.13;;;10.77;;
52210;SDS011;38179;52.756;6.906;2023-03-12T08:07:34;19.38;;;11.85;;
52210;SDS011;38179;52.756;6.906;2023-03-12T08:10:01;15.48;;;10.57;;
52210;SDS011;38179;52.756;6.906;2023-03-12T08:12:28;15.73;;;11.35;;
52210;SDS011;38179;52.756;6.906;2023-03-12T08:14:54;14.65;;;11.50;;
52210;SDS011;38179;52.756;6.906;2023-03-12T08:17:20;14.80;;;11.68;;
52210;SDS011;38179;52.756;6.906;2023-03-12T08:19:46;18.90;;;11.55;;
52210;SDS011;38179;52.756;6.906;2023-03-12T08:22:13;19.67;;;11.90;;
52210;SDS011;38179;52.756;6.906;2023-03-12T08:24:40;15.45;;;11.07;;
52210;SDS011;38179;52.756;6.906;2023-03-12T08:27:06;17.45;;;11.43;;
52210;SDS011;38179;52.756;6.906;2023-03-12T08:29:31;14.90;;;11.25;;
52210;SDS011;38179;52.756;6.906;2023-03-12T08:31:58;17.85;;;12.50;;
52210;SDS011;38179;52.756;6.906;2023-03-12T08:34:30;16.08;;;12.45;;
52210;SDS011;38179;52.756;6.906;2023-03-12T08:37:05;17.55;;;12.02;;
52210;SDS011;38179;52.756;6.906;2023-03-12T08:39:31;19.70;;;12.05;;
52210;SDS011;38179;52.756;6.906;2023-03-12T08:41:57;16.75;;;12.13;;
52210;SDS011;38179;52.756;6.906;2023-03-12T08:44:23;14.95;;;11.23;;
52210;SDS011;38179;52.756;6.906;2023-03-12T08:46:50;19.83;;;12.27;;
52210;SDS011;38179;52.756;6.906;2023-03-12T08:49:19;16.25;;;12.52;;
52210;SDS011;38179;52.756;6.906;2023-03-12T08:51:46;17.90;;;12.32;;
52210;SDS011;38179;52.756;6.906;2023-03-12T08:54:12;16.45;;;13.45;;
52210;SDS011;38179;52.756;6.906;2023-03-12T08:56:37;21.50;;;17.92;;
52210;SDS011;38179;52.756;6.906;2023-03-12T08:59:09;25.63;;;22.55;;
52210;SDS011;38179;52.756;6.906;2023-03-12T09:01:35;23.08;;;17.83;;
52210;SDS011;38179;52.756;6.906;2023-03-12T09:04:02;18.42;;;14.32;;
52210;SDS011;38179;52.756;6.906;2023-03-12T09:06:29;22.45;;;13.65;;
52210;SDS011;38179;52.756;6.906;2023-03-12T09:08:55;16.02;;;12.70;;
52210;SDS011;38179;52.756;6.906;2023-03-12T09:11:29;17.67;;;13.07;;
52210;SDS011;38179;52.756;6.906;2023-03-12T09:13:56;15.13;;;12.65;;
52210;SDS011;38179;52.756;6.906;2023-03-12T09:16:23;15.18;;;12.55;;
52210;SDS011;38179;52.756;6.906;2023-03-12T09:18:49;17.35;;;12.80;;
52210;SDS011;38179;52.756;6.906;2023-03-12T09:21:15;32.70;;;13.23;;
52210;SDS011;38179;52.756;6.906;2023-03-12T09:23:41;18.25;;;12.25;;
52210;SDS011;38179;52.756;6.906;2023-03-12T09:26:10;17.58;;;13.25;;
52210;SDS011;38179;52.756;6.906;2023-03-12T09:28:36;15.88;;;12.10;;
52210;SDS011;38179;52.756;6.906;2023-03-12T09:31:02;17.73;;;12.68;;
52210;SDS011;38179;52.756;6.906;2023-03-12T09:33:29;19.80;;;13.55;;
52210;SDS011;38179;52.756;6.906;2023-03-12T09:35:57;18.40;;;14.20;;
52210;SDS011;38179;52.756;6.906;2023-03-12T09:38:27;21.17;;;14.07;;
52210;SDS011;38179;52.756;6.906;2023-03-12T09:40:56;19.73;;;14.65;;
52210;SDS011;38179;52.756;6.906;2023-03-12T09:43:36;18.45;;;13.40;;
52210;SDS011;38179;52.756;6.906;2023-03-12T09:46:13;19.83;;;13.85;;
52210;SDS011;38179;52.756;6.906;2023-03-12T09:48:44;16.05;;;13.35;;
52210;SDS011;38179;52.756;6.906;2023-03-12T09:53:57;18.75;;;14.55;;
52210;SDS011;38179;52.756;6.906;2023-03-12T09:56:27;20.13;;;14.68;;
52210;SDS011;38179;52.756;6.906;2023-03-12T09:58:54;18.42;;;14.38;;
52210;SDS011;38179;52.756;6.906;2023-03-12T10:15:24;20.20;;;16.38;;
52210;SDS011;38179;52.756;6.906;2023-03-12T10:26:13;29.73;;;17.02;;
52210;SDS011;38179;52.756;6.906;2023-03-12T10:28:54;23.25;;;16.80;;
52210;SDS011;38179;52.756;6.906;2023-03-12T10:34:02;25.88;;;17.90;;
52210;SDS011;38179;52.756;6.906;2023-03-12T10:36:37;25.30;;;17.08;;
52210;SDS011;38179;52.756;6.906;2023-03-12T10:39:05;22.57;;;16.80;;
52210;SDS011;38179;52.756;6.906;2023-03-12T10:41:43;23.88;;;17.80;;
52210;SDS011;38179;52.756;6.906;2023-03-12T10:44:14;25.73;;;18.67;;
52210;SDS011;38179;52.756;6.906;2023-03-12T10:49:33;24.23;;;17.23;;
52210;SDS011;38179;52.756;6.906;2023-03-12T10:54:45;30.02;;;19.48;;
52210;SDS011;38179;52.756;6.906;2023-03-12T10:57:13;28.52;;;19.40;;
52210;SDS011;38179;52.756;6.906;2023-03-12T10:59:44;24.77;;;18.40;;
52210;SDS011;38179;52.756;6.906;2023-03-12T11:02:45;26.45;;;20.40;;
52210;SDS011;38179;52.756;6.906;2023-03-12T11:05:18;25.63;;;19.95;;
52210;SDS011;38179;52.756;6.906;2023-03-12T11:07:49;31.65;;;19.63;;
52210;SDS011;38179;52.756;6.906;2023-03-12T11:10:17;34.78;;;22.67;;
52210;SDS011;38179;52.756;6.906;2023-03-12T11:13:02;30.70;;;20.33;;
52210;SDS011;38179;52.756;6.906;2023-03-12T11:15:45;29.27;;;21.08;;
52210;SDS011;38179;52.756;6.906;2023-03-12T11:23:35;34.75;;;24.58;;
52210;SDS011;38179;52.756;6.906;2023-03-12T11:26:04;33.65;;;23.13;;
52210;SDS011;38179;52.756;6.906;2023-03-12T11:28:38;39.30;;;24.25;;
52210;SDS011;38179;52.756;6.906;2023-03-12T11:31:08;35.35;;;25.05;;
52210;SDS011;38179;52.756;6.906;2023-03-12T11:33:41;36.33;;;24.58;;
52210;SDS011;38179;52.756;6.906;2023-03-12T11:39:22;33.70;;;23.17;;
52210;SDS011;38179;52.756;6.906;2023-03-12T11:57:48;39.45;;;25.55;;
52210;SDS011;38179;52.756;6.906;2023-03-12T12:00:27;34.85;;;23.58;;
52210;SDS011;38179;52.756;6.906;2023-03-12T12:03:38;34.80;;;23.20;;
52210;SDS011;38179;52.756;6.906;2023-03-12T12:09:20;36.42;;;24.27;;
52210;SDS011;38179;52.756;6.906;2023-03-12T12:15:01;37.92;;;23.48;;
52210;SDS011;38179;52.756;6.906;2023-03-12T12:18:03;35.17;;;21.98;;
52210;SDS011;38179;52.756;6.906;2023-03-12T12:20:36;38.20;;;22.83;;
52210;SDS011;38179;52.756;6.906;2023-03-12T12:40:04;41.97;;;24.50;;
52210;SDS011;38179;52.756;6.906;2023-03-12T12:43:00;43.30;;;25.40;;
52210;SDS011;38179;52.756;6.906;2023-03-12T12:45:40;41.00;;;25.00;;
52210;SDS011;38179;52.756;6.906;2023-03-12T12:48:15;41.38;;;25.23;;
52210;SDS011;38179;52.756;6.906;2023-03-12T12:50:42;43.38;;;25.98;;
52210;SDS011;38179;52.756;6.906;2023-03-12T12:53:21;45.65;;;26.73;;
52210;SDS011;38179;52.756;6.906;2023-03-12T12:58:25;42.88;;;24.15;;
52210;SDS011;38179;52.756;6.906;2023-03-12T13:01:07;41.83;;;25.95;;
52210;SDS011;38179;52.756;6.906;2023-03-12T13:03:34;48.13;;;26.95;;
52210;SDS011;38179;52.756;6.906;2023-03-12T13:06:03;52.97;;;26.73;;
52210;SDS011;38179;52.756;6.906;2023-03-12T13:11:03;50.33;;;26.80;;
52210;SDS011;38179;52.756;6.906;2023-03-12T13:13:51;49.30;;;27.13;;
52210;SDS011;38179;52.756;6.906;2023-03-12T13:16:41;49.97;;;27.70;;
52210;SDS011;38179;52.756;6.906;2023-03-12T13:24:24;53.80;;;28.35;;
52210;SDS011;38179;52.756;6.906;2023-03-12T13:27:04;53.60;;;29.10;;
52210;SDS011;38179;52.756;6.906;2023-03-12T13:29:46;56.42;;;28.95;;
52210;SDS011;38179;52.756;6.906;2023-03-12T13:43:09;62.45;;;29.88;;
52210;SDS011;38179;52.756;6.906;2023-03-12T13:48:32;65.45;;;29.50;;
52210;SDS011;38179;52.756;6.906;2023-03-12T13:51:22;63.92;;;30.60;;
52210;SDS011;38179;52.756;6.906;2023-03-12T13:53:54;64.63;;;29.08;;
52210;SDS011;38179;52.756;6.906;2023-03-12T13:56:31;56.72;;;28.60;;
52210;SDS011;38179;52.756;6.906;2023-03-12T13:59:07;60.88;;;28.70;;
52210;SDS011;38179;52.756;6.906;2023-03-12T14:01:44;62.10;;;28.42;;
52210;SDS011;38179;52.756;6.906;2023-03-12T14:04:46;66.57;;;30.45;;
52210;SDS011;38179;52.756;6.906;2023-03-12T14:07:13;66.85;;;30.67;;
52210;SDS011;38179;52.756;6.906;2023-03-12T14:18:00;63.95;;;29.02;;
52210;SDS011;38179;52.756;6.906;2023-03-12T14:20:33;73.28;;;27.15;;
52210;SDS011;38179;52.756;6.906;2023-03-12T14:25:41;59.38;;;26.20;;
52210;SDS011;38179;52.756;6.906;2023-03-12T14:28:18;56.97;;;24.88;;
52210;SDS011;38179;52.756;6.906;2023-03-12T14:30:53;66.38;;;26.23;;
52210;SDS011;38179;52.756;6.906;2023-03-12T14:33:34;58.42;;;25.27;;
52210;SDS011;38179;52.756;6.906;2023-03-12T14:36:16;55.10;;;24.20;;
52210;SDS011;38179;52.756;6.906;2023-03-12T14:38:47;52.65;;;23.52;;
52210;SDS011;38179;52.756;6.906;2023-03-12T14:41:21;51.35;;;23.75;;
52210;SDS011;38179;52.756;6.906;2023-03-12T14:44:26;51.13;;;24.10;;
52210;SDS011;38179;52.756;6.906;2023-03-12T14:46:57;50.00;;;22.38;;
52210;SDS011;38179;52.756;6.906;2023-03-12T14:49:40;50.42;;;24.02;;
52210;SDS011;38179;52.756;6.906;2023-03-12T14:52:11;46.30;;;23.50;;
52210;SDS011;38179;52.756;6.906;2023-03-12T14:54:38;58.08;;;23.73;;
52210;SDS011;38179;52.756;6.906;2023-03-12T14:57:04;49.22;;;22.98;;
52210;SDS011;38179;52.756;6.906;2023-03-12T14:59:31;48.33;;;22.08;;
52210;SDS011;38179;52.756;6.906;2023-03-12T15:02:08;54.38;;;21.75;;
52210;SDS011;38179;52.756;6.906;2023-03-12T15:04:38;53.58;;;21.40;;
52210;SDS011;38179;52.756;6.906;2023-03-12T15:07:05;56.70;;;21.23;;
52210;SDS011;38179;52.756;6.906;2023-03-12T15:09:37;49.92;;;20.67;;
52210;SDS011;38179;52.756;6.906;2023-03-12T15:12:16;51.53;;;21.75;;
52210;SDS011;38179;52.756;6.906;2023-03-12T15:14:43;46.15;;;20.45;;
52210;SDS011;38179;52.756;6.906;2023-03-12T15:17:14;51.67;;;20.73;;
52210;SDS011;38179;52.756;6.906;2023-03-12T15:19:42;47.50;;;19.95;;
52210;SDS011;38179;52.756;6.906;2023-03-12T15:22:17;58.55;;;20.55;;
52210;SDS011;38179;52.756;6.906;2023-03-12T15:24:45;53.28;;;20.95;;
52210;SDS011;38179;52.756;6.906;2023-03-12T15:29:49;46.58;;;20.77;;
52210;SDS011;38179;52.756;6.906;2023-03-12T15:32:17;47.42;;;20.10;;
52210;SDS011;38179;52.756;6.906;2023-03-12T15:34:49;49.65;;;20.10;;
52210;SDS011;38179;52.756;6.906;2023-03-12T15:37:38;41.33;;;18.55;;
52210;SDS011;38179;52.756;6.906;2023-03-12T15:42:53;41.55;;;16.42;;
52210;SDS011;38179;52.756;6.906;2023-03-12T15:45:36;56.90;;;17.75;;
52210;SDS011;38179;52.756;6.906;2023-03-12T15:48:25;48.17;;;17.25;;
52210;SDS011;38179;52.756;6.906;2023-03-12T15:50:52;46.95;;;15.35;;
52210;SDS011;38179;52.756;6.906;2023-03-12T15:58:45;46.70;;;14.60;;
52210;SDS011;38179;52.756;6.906;2023-03-12T16:01:12;44.47;;;15.65;;
52210;SDS011;38179;52.756;6.906;2023-03-12T16:03:55;43.63;;;15.00;;
52210;SDS011;38179;52.756;6.906;2023-03-12T16:06:24;41.47;;;14.10;;
52210;SDS011;38179;52.756;6.906;2023-03-12T16:08:58;44.28;;;13.95;;
52210;SDS011;38179;52.756;6.906;2023-03-12T16:11:31;42.03;;;13.88;;
52210;SDS011;38179;52.756;6.906;2023-03-12T16:16:32;39.20;;;13.10;;
52210;SDS011;38179;52.756;6.906;2023-03-12T16:18:59;36.33;;;12.98;;
52210;SDS011;38179;52.756;6.906;2023-03-12T16:21:24;35.90;;;13.07;;
52210;SDS011;38179;52.756;6.906;2023-03-12T16:23:50;36.00;;;13.70;;
52210;SDS011;38179;52.756;6.906;2023-03-12T16:26:16;32.70;;;13.43;;
52210;SDS011;38179;52.756;6.906;2023-03-12T16:28:42;40.58;;;12.57;;
52210;SDS011;38179;52.756;6.906;2023-03-12T16:31:10;40.00;;;13.40;;
52210;SDS011;38179;52.756;6.906;2023-03-12T16:33:39;37.80;;;13.88;;
52210;SDS011;38179;52.756;6.906;2023-03-12T16:36:11;42.25;;;13.70;;
52210;SDS011;38179;52.756;6.906;2023-03-12T16:38:41;37.83;;;13.50;;
52210;SDS011;38179;52.756;6.906;2023-03-12T16:41:11;45.78;;;12.77;;
52210;SDS011;38179;52.756;6.906;2023-03-12T16:43:39;46.72;;;13.50;;
52210;SDS011;38179;52.756;6.906;2023-03-12T16:46:07;40.47;;;13.77;;
52210;SDS011;38179;52.756;6.906;2023-03-12T16:48:33;30.67;;;13.25;;
52210;SDS011;38179;52.756;6.906;2023-03-12T16:51:00;36.58;;;12.13;;
52210;SDS011;38179;52.756;6.906;2023-03-12T16:53:26;50.78;;;14.18;;
52210;SDS011;38179;52.756;6.906;2023-03-12T16:55:53;43.20;;;13.77;;
52210;SDS011;38179;52.756;6.906;2023-03-12T16:58:21;34.97;;;14.00;;
52210;SDS011;38179;52.756;6.906;2023-03-12T17:00:50;38.78;;;12.70;;
52210;SDS011;38179;52.756;6.906;2023-03-12T17:03:19;29.95;;;12.45;;
52210;SDS011;38179;52.756;6.906;2023-03-12T17:05:57;37.28;;;13.27;;
52210;SDS011;38179;52.756;6.906;2023-03-12T17:08:23;36.47;;;12.40;;
52210;SDS011;38179;52.756;6.906;2023-03-12T17:10:49;36.85;;;13.68;;
52210;SDS011;38179;52.756;6.906;2023-03-12T17:13:19;32.20;;;12.45;;
52210;SDS011;38179;52.756;6.906;2023-03-12T17:15:48;34.97;;;11.73;;
52210;SDS011;38179;52.756;6.906;2023-03-12T17:18:15;29.67;;;11.38;;
52210;SDS011;38179;52.756;6.906;2023-03-12T17:20:42;28.55;;;11.15;;
52210;SDS011;38179;52.756;6.906;2023-03-12T17:23:08;27.00;;;10.93;;
52210;SDS011;38179;52.756;6.906;2023-03-12T17:25:35;36.00;;;12.07;;
52210;SDS011;38179;52.756;6.906;2023-03-12T17:28:03;43.88;;;12.48;;
52210;SDS011;38179;52.756;6.906;2023-03-12T17:30:29;30.55;;;11.35;;
52210;SDS011;38179;52.756;6.906;2023-03-12T17:32:59;35.15;;;12.18;;
52210;SDS011;38179;52.756;6.906;2023-03-12T17:35:30;30.98;;;11.65;;
52210;SDS011;38179;52.756;6.906;2023-03-12T17:37:56;35.17;;;11.90;;
52210;SDS011;38179;52.756;6.906;2023-03-12T17:40:23;28.58;;;12.30;;
52210;SDS011;38179;52.756;6.906;2023-03-12T17:42:49;27.27;;;11.55;;
52210;SDS011;38179;52.756;6.906;2023-03-12T17:45:18;38.72;;;11.90;;
52210;SDS011;38179;52.756;6.906;2023-03-12T17:47:44;34.08;;;12.48;;
52210;SDS011;38179;52.756;6.906;2023-03-12T17:50:10;32.90;;;11.43;;
52210;SDS011;38179;52.756;6.906;2023-03-12T17:52:37;33.13;;;11.68;;
52210;SDS011;38179;52.756;6.906;2023-03-12T17:55:03;25.77;;;11.25;;
52210;SDS011;38179;52.756;6.906;2023-03-12T17:57:30;25.27;;;10.90;;
52210;SDS011;38179;52.756;6.906;2023-03-12T17:59:56;33.00;;;12.43;;
52210;SDS011;38179;52.756;6.906;2023-03-12T18:02:24;35.42;;;11.43;;
52210;SDS011;38179;52.756;6.906;2023-03-12T18:04:50;31.20;;;11.38;;
52210;SDS011;38179;52.756;6.906;2023-03-12T18:07:34;30.02;;;11.98;;
52210;SDS011;38179;52.756;6.906;2023-03-12T18:10:07;35.88;;;12.15;;
52210;SDS011;38179;52.756;6.906;2023-03-12T18:12:52;27.88;;;11.18;;
52210;SDS011;38179;52.756;6.906;2023-03-12T18:15:18;28.63;;;11.43;;
52210;SDS011;38179;52.756;6.906;2023-03-12T18:17:44;33.13;;;12.45;;
52210;SDS011;38179;52.756;6.906;2023-03-12T18:20:10;30.23;;;11.75;;
52210;SDS011;38179;52.756;6.906;2023-03-12T18:22:41;31.88;;;12.93;;
52210;SDS011;38179;52.756;6.906;2023-03-12T18:25:09;29.98;;;11.25;;
52210;SDS011;38179;52.756;6.906;2023-03-12T18:27:36;24.98;;;11.55;;
52210;SDS011;38179;52.756;6.906;2023-03-12T18:30:02;27.40;;;10.93;;
52210;SDS011;38179;52.756;6.906;2023-03-12T18:32:28;27.52;;;10.43;;
52210;SDS011;38179;52.756;6.906;2023-03-12T18:34:54;34.45;;;11.98;;
52210;SDS011;38179;52.756;6.906;2023-03-12T18:37:20;28.58;;;11.40;;
52210;SDS011;38179;52.756;6.906;2023-03-12T18:39:47;27.20;;;11.50;;
52210;SDS011;38179;52.756;6.906;2023-03-12T18:42:12;31.63;;;11.48;;
52210;SDS011;38179;52.756;6.906;2023-03-12T18:44:38;37.60;;;11.98;;
52210;SDS011;38179;52.756;6.906;2023-03-12T18:47:04;29.27;;;11.32;;
52210;SDS011;38179;52.756;6.906;2023-03-12T18:49:30;27.60;;;11.57;;
52210;SDS011;38179;52.756;6.906;2023-03-12T18:51:56;29.90;;;11.13;;
52210;SDS011;38179;52.756;6.906;2023-03-12T18:54:22;33.45;;;11.82;;
52210;SDS011;38179;52.756;6.906;2023-03-12T18:56:48;28.33;;;11.20;;
52210;SDS011;38179;52.756;6.906;2023-03-12T18:59:14;33.10;;;11.90;;
52210;SDS011;38179;52.756;6.906;2023-03-12T19:01:41;39.08;;;11.48;;
52210;SDS011;38179;52.756;6.906;2023-03-12T19:04:11;30.20;;;11.63;;
52210;SDS011;38179;52.756;6.906;2023-03-12T19:06:40;28.05;;;11.35;;
52210;SDS011;38179;52.756;6.906;2023-03-12T19:09:06;32.72;;;12.50;;
52210;SDS011;38179;52.756;6.906;2023-03-12T19:11:34;30.65;;;12.02;;
52210;SDS011;38179;52.756;6.906;2023-03-12T19:14:00;30.30;;;11.48;;
52210;SDS011;38179;52.756;6.906;2023-03-12T19:16:29;24.23;;;11.57;;
52210;SDS011;38179;52.756;6.906;2023-03-12T19:18:55;31.45;;;11.85;;
52210;SDS011;38179;52.756;6.906;2023-03-12T19:21:21;28.17;;;11.70;;
52210;SDS011;38179;52.756;6.906;2023-03-12T19:23:47;34.88;;;12.00;;
52210;SDS011;38179;52.756;6.906;2023-03-12T19:26:14;25.65;;;11.65;;
52210;SDS011;38179;52.756;6.906;2023-03-12T19:28:40;33.75;;;12.40;;
52210;SDS011;38179;52.756;6.906;2023-03-12T19:31:07;34.72;;;12.35;;
52210;SDS011;38179;52.756;6.906;2023-03-12T19:33:35;27.33;;;12.60;;
52210;SDS011;38179;52.756;6.906;2023-03-12T19:36:01;30.08;;;11.93;;
52210;SDS011;38179;52.756;6.906;2023-03-12T19:38:27;37.38;;;13.02;;
52210;SDS011;38179;52.756;6.906;2023-03-12T19:40:53;35.20;;;12.23;;
52210;SDS011;38179;52.756;6.906;2023-03-12T19:43:21;26.35;;;12.82;;
52210;SDS011;38179;52.756;6.906;2023-03-12T19:45:47;31.13;;;12.00;;
52210;SDS011;38179;52.756;6.906;2023-03-12T19:48:13;30.45;;;11.23;;
52210;SDS011;38179;52.756;6.906;2023-03-12T19:50:40;33.45;;;11.55;;
52210;SDS011;38179;52.756;6.906;2023-03-12T19:53:06;36.03;;;12.55;;
52210;SDS011;38179;52.756;6.906;2023-03-12T19:55:34;32.40;;;11.73;;
52210;SDS011;38179;52.756;6.906;2023-03-12T19:58:00;26.70;;;11.48;;
52210;SDS011;38179;52.756;6.906;2023-03-12T20:00:26;42.05;;;13.73;;
52210;SDS011;38179;52.756;6.906;2023-03-12T20:02:52;34.78;;;12.05;;
52210;SDS011;38179;52.756;6.906;2023-03-12T20:05:18;29.70;;;12.45;;
52210;SDS011;38179;52.756;6.906;2023-03-12T20:07:43;30.65;;;12.27;;
52210;SDS011;38179;52.756;6.906;2023-03-12T20:10:10;26.30;;;12.10;;
52210;SDS011;38179;52.756;6.906;2023-03-12T20:12:37;26.27;;;11.60;;
52210;SDS011;38179;52.756;6.906;2023-03-12T20:15:03;36.67;;;12.10;;
52210;SDS011;38179;52.756;6.906;2023-03-12T20:17:30;31.17;;;11.27;;
52210;SDS011;38179;52.756;6.906;2023-03-12T20:19:56;30.83;;;12.57;;
52210;SDS011;38179;52.756;6.906;2023-03-12T20:22:22;29.15;;;11.45;;
52210;SDS011;38179;52.756;6.906;2023-03-12T20:24:52;35.53;;;11.73;;
52210;SDS011;38179;52.756;6.906;2023-03-12T20:27:19;32.45;;;11.93;;
52210;SDS011;38179;52.756;6.906;2023-03-12T20:29:45;26.63;;;10.75;;
52210;SDS011;38179;52.756;6.906;2023-03-12T20:32:12;32.20;;;11.77;;
52210;SDS011;38179;52.756;6.906;2023-03-12T20:34:38;23.48;;;10.80;;
52210;SDS011;38179;52.756;6.906;2023-03-12T20:37:03;24.13;;;10.50;;
52210;SDS011;38179;52.756;6.906;2023-03-12T20:39:29;24.25;;;11.18;;
52210;SDS011;38179;52.756;6.906;2023-03-12T20:41:55;29.85;;;10.57;;
52210;SDS011;38179;52.756;6.906;2023-03-12T20:44:21;24.05;;;10.27;;
52210;SDS011;38179;52.756;6.906;2023-03-12T20:46:47;21.60;;;10.73;;
52210;SDS011;38179;52.756;6.906;2023-03-12T20:49:13;30.33;;;10.88;;
52210;SDS011;38179;52.756;6.906;2023-03-12T20:51:39;18.83;;;9.70;;
52210;SDS011;38179;52.756;6.906;2023-03-12T20:54:07;21.42;;;10.77;;
52210;SDS011;38179;52.756;6.906;2023-03-12T20:56:33;20.70;;;10.25;;
52210;SDS011;38179;52.756;6.906;2023-03-12T20:58:59;23.15;;;10.52;;
52210;SDS011;38179;52.756;6.906;2023-03-12T21:01:25;26.77;;;11.07;;
52210;SDS011;38179;52.756;6.906;2023-03-12T21:03:54;19.02;;;10.20;;
52210;SDS011;38179;52.756;6.906;2023-03-12T21:06:21;24.85;;;10.50;;
52210;SDS011;38179;52.756;6.906;2023-03-12T21:08:47;22.08;;;10.15;;
52210;SDS011;38179;52.756;6.906;2023-03-12T21:11:16;16.88;;;9.52;;
52210;SDS011;38179;52.756;6.906;2023-03-12T21:13:42;21.92;;;9.90;;
52210;SDS011;38179;52.756;6.906;2023-03-12T21:16:08;22.88;;;10.75;;
52210;SDS011;38179;52.756;6.906;2023-03-12T21:18:35;16.40;;;9.60;;
52210;SDS011;38179;52.756;6.906;2023-03-12T21:21:05;18.35;;;9.52;;
52210;SDS011;38179;52.756;6.906;2023-03-12T21:23:32;16.30;;;9.55;;
52210;SDS011;38179;52.756;6.906;2023-03-12T21:25:59;17.80;;;9.73;;
52210;SDS011;38179;52.756;6.906;2023-03-12T21:28:27;13.23;;;8.85;;
52210;SDS011;38179;52.756;6.906;2023-03-12T21:30:53;14.00;;;9.02;;
52210;SDS011;38179;52.756;6.906;2023-03-12T21:33:20;13.25;;;9.20;;
52210;SDS011;38179;52.756;6.906;2023-03-12T21:35:46;14.27;;;8.93;;
52210;SDS011;38179;52.756;6.906;2023-03-12T21:38:12;15.90;;;9.45;;
52210;SDS011;38179;52.756;6.906;2023-03-12T21:40:38;16.92;;;8.63;;
52210;SDS011;38179;52.756;6.906;2023-03-12T21:43:03;15.20;;;8.90;;
52210;SDS011;38179;52.756;6.906;2023-03-12T21:45:30;13.25;;;8.40;;
52210;SDS011;38179;52.756;6.906;2023-03-12T21:47:56;14.73;;;9.30;;
52210;SDS011;38179;52.756;6.906;2023-03-12T21:50:22;16.45;;;9.00;;
52210;SDS011;38179;52.756;6.906;2023-03-12T21:52:48;19.27;;;10.48;;
52210;SDS011;38179;52.756;6.906;2023-03-12T21:55:15;15.82;;;9.63;;
52210;SDS011;38179;52.756;6.906;2023-03-12T21:57:42;16.08;;;8.95;;
52210;SDS011;38179;52.756;6.906;2023-03-12T22:00:09;18.88;;;9.27;;
52210;SDS011;38179;52.756;6.906;2023-03-12T22:02:38;19.70;;;10.02;;
52210;SDS011;38179;52.756;6.906;2023-03-12T22:05:05;21.52;;;10.65;;
52210;SDS011;38179;52.756;6.906;2023-03-12T22:07:32;19.90;;;9.90;;
52210;SDS011;38179;52.756;6.906;2023-03-12T22:09:58;17.25;;;9.82;;
52210;SDS011;38179;52.756;6.906;2023-03-12T22:12:23;18.08;;;10.02;;
52210;SDS011;38179;52.756;6.906;2023-03-12T22:14:49;21.58;;;10.73;;